This is the latest recevied weather packets stored in our database for station/object KQ4OSL. If no packets are shown the sender has not sent any weather packets the latest 1 day(s).
| Time | Temp. | Humidity | Pressure | Rain* | Wind** | Luminosity | Snow |
|---|---|---|---|---|---|---|---|
| 1778009039 | 25° C | 45% | 1016.2 hPa | 0 mm | 0.89 m/s, 215° | 621 W/m² | - |
| 1778008736 | 24.44° C | 45% | 1016.1 hPa | 0 mm | 1.34 m/s, 189° | 631 W/m² | - |
| 1778008435 | 24.44° C | 45% | 1016.2 hPa | 0 mm | 2.24 m/s, 256° | 621 W/m² | - |
| 1778008131 | 23.89° C | 47% | 1016.3 hPa | 0 mm | 1.34 m/s, 206° | 601 W/m² | - |
| 1778007826 | 23.89° C | 47% | 1016.4 hPa | 0 mm | 3.13 m/s, 178° | 655 W/m² | - |
| 1778007522 | 23.89° C | 49% | 1016.1 hPa | 0 mm | 2.24 m/s, 227° | 671 W/m² | - |
| 1778007219 | 24.44° C | 47% | 1016.2 hPa | 0 mm | 2.24 m/s, 234° | 684 W/m² | - |
| 1778006915 | 23.89° C | 50% | 1016.5 hPa | 0 mm | 1.34 m/s, 239° | 672 W/m² | - |
| 1778006612 | 23.89° C | 51% | 1016.6 hPa | 0 mm | 0.45 m/s, 258° | 699 W/m² | - |
| 1778006310 | 23.89° C | 48% | 1016.5 hPa | 0 mm | 1.34 m/s, 256° | 529 W/m² | - |
| 1778006006 | 23.89° C | 47% | 1016.5 hPa | 0 mm | 2.24 m/s, 258° | 663 W/m² | - |
| 1778005703 | 23.33° C | 48% | 1016.9 hPa | 0 mm | 1.34 m/s, 267° | 718 W/m² | - |
| 1778005400 | 23.33° C | 49% | 1016.8 hPa | 0 mm | 1.34 m/s, 212° | 646 W/m² | - |
| 1778005096 | 23.33° C | 48% | 1016.8 hPa | 0 mm | 2.24 m/s, 249° | 738 W/m² | - |
| 1778004794 | 23.33° C | 47% | 1017.1 hPa | 0 mm | 1.79 m/s, 165° | 682 W/m² | - |
| 1778004490 | 23.89° C | 46% | 1017.1 hPa | 0 mm | 2.24 m/s, 153° | 618 W/m² | - |
| 1778004187 | 23.33° C | 47% | 1017.2 hPa | 0 mm | 1.79 m/s, 243° | 695 W/m² | - |
| 1778003883 | 23.33° C | 50% | 1017.2 hPa | 0 mm | 1.34 m/s, 202° | 705 W/m² | - |
| 1778003580 | 22.78° C | 48% | 1017.3 hPa | 0 mm | 2.68 m/s, 180° | 716 W/m² | - |
| 1778003276 | 23.89° C | 48% | 1017.2 hPa | 0 mm | 0.89 m/s, 239° | 699 W/m² | - |
| 1778002974 | 23.33° C | 47% | 1017.4 hPa | 0 mm | 1.34 m/s, 256° | 740 W/m² | - |
| 1778002669 | 22.78° C | 47% | 1017.5 hPa | 0 mm | 2.24 m/s, 259° | 760 W/m² | - |
| 1778002366 | 22.78° C | 48% | 1017.6 hPa | 0 mm | 2.68 m/s, 268° | 756 W/m² | - |
| 1778002063 | 23.33° C | 49% | 1017.7 hPa | 0 mm | 1.79 m/s, 266° | 763 W/m² | - |
| 1778001760 | 22.78° C | 51% | 1017.5 hPa | 0 mm | 1.34 m/s, 146° | 724 W/m² | - |
* Rain latest hour (hover to see other rain measurements)
** Current wind speed in m/s (hover to see current wind gust speed)